Time;durP1;ratioP1;P1;durP2;ratioP2;P2;SDS_P1;SDS_P2;PMS_P1;PMS_P2;Temp;Humidity;BMP_temperature;BMP_pressure;BME280_temperature;BME280_humidity;BME280_pressure;Samples;Min_cycle;Max_cycle;Signal;HPM_P1;HPM_P2
2022/11/17 04:57:10;;;;;;;17.50;10.75;;;;;;;8.18;100.00;99723.94;5063926;28;20398;-83
2022/11/17 04:59:36;;;;;;;21.88;8.10;;;;;;;8.13;100.00;99700.97;5049999;28;20032;-85
2022/11/17 05:02:01;;;;;;;18.90;12.30;;;;;;;8.39;100.00;99719.41;5066633;28;20036;-85
2022/11/17 05:07:10;;;;;;;14.85;8.70;;;;;;;8.69;98.98;99747.81;5066245;28;20035;-84
2022/11/17 05:09:36;;;;;;;16.40;8.60;;;;;;;8.83;97.75;99738.41;5031211;28;20033;-85
2022/11/17 05:14:47;;;;;;;10.93;6.63;;;;;;;8.99;95.98;99756.44;5066352;28;20098;-83
2022/11/17 05:17:13;;;;;;;18.73;9.10;;;;;;;9.10;95.89;99779.06;5048001;28;20033;-89
2022/11/17 05:19:40;;;;;;;13.95;9.32;;;;;;;9.26;95.22;99787.59;5051894;28;20572;-96
2022/11/17 05:23:52;;;;;;;13.10;6.80;;;;;;;9.24;94.58;99791.16;5065647;23;20054;-86
2022/11/17 05:24:52;;;;;;;9.15;5.72;;;;;;;9.17;94.78;99796.69;5026593;28;20037;-90
2022/11/17 05:27:17;;;;;;;11.27;6.97;;;;;;;9.25;94.48;99816.09;5004127;28;20033;-82
2022/11/17 05:29:43;;;;;;;11.63;5.93;;;;;;;9.12;94.72;99784.94;5019678;28;20030;-88
2022/11/17 05:32:08;;;;;;;17.88;8.23;;;;;;;9.36;95.03;99827.47;5027102;28;20037;-83
2022/11/17 05:34:34;;;;;;;16.65;7.18;;;;;;;9.24;94.10;99806.66;5024676;28;20037;-83
2022/11/17 05:36:59;;;;;;;14.32;6.90;;;;;;;9.48;94.06;99834.50;5025273;28;20087;-81
2022/11/17 05:39:25;;;;;;;18.83;8.52;;;;;;;9.51;94.28;99840.41;5041762;28;20030;-80
2022/11/17 05:41:50;;;;;;;15.73;8.68;;;;;;;9.53;93.88;99823.06;5024866;28;20042;-83
2022/11/17 05:44:16;;;;;;;14.30;9.68;;;;;;;9.53;93.52;99823.91;5000195;28;20092;-82
2022/11/17 05:46:41;;;;;;;11.80;6.78;;;;;;;9.71;93.53;99845.25;5025939;28;20034;-85
2022/11/17 05:49:07;;;;;;;14.45;6.40;;;;;;;9.57;93.58;99834.91;5008167;28;20534;-85
2022/11/17 05:51:32;;;;;;;14.10;7.45;;;;;;;9.64;93.93;99841.38;5035880;28;20029;-85
2022/11/17 05:53:58;;;;;;;15.10;6.78;;;;;;;9.47;93.78;99819.94;5005443;28;20561;-85
2022/11/17 05:56:32;;;;;;;16.67;8.48;;;;;;;9.61;93.23;99849.28;5019032;28;20060;-88
2022/11/17 05:59:00;;;;;;;12.73;5.97;;;;;;;9.67;93.08;99847.19;5022569;28;20027;-89
2022/11/17 06:01:26;;;;;;;9.50;6.00;;;;;;;9.76;92.93;99863.91;5021680;28;20030;-91
2022/11/17 06:03:52;;;;;;;10.52;6.00;;;;;;;9.75;92.27;99863.09;4991481;28;20127;-93
2022/11/17 06:06:18;;;;;;;9.02;6.80;;;;;;;9.58;92.66;99832.22;4971541;28;20073;-85
2022/11/17 06:08:44;;;;;;;15.73;8.30;;;;;;;9.76;92.44;99851.84;4989366;28;20026;-85
2022/11/17 06:11:10;;;;;;;15.18;7.57;;;;;;;9.88;92.76;99850.28;4973595;28;20078;-83
2022/11/17 06:13:35;;;;;;;9.85;5.88;;;;;;;9.92;92.59;99849.19;5008217;28;20030;-88
2022/11/17 06:16:02;;;;;;;14.35;6.55;;;;;;;9.66;93.18;99795.63;4992924;28;20037;-84
2022/11/17 06:18:31;;;;;;;16.02;12.88;;;;;;;10.06;93.68;99848.38;5019160;28;20022;-88
2022/11/17 06:20:56;;;;;;;42.15;23.77;;;;;;;10.18;93.21;99842.47;4989546;28;20041;-93
2022/11/17 06:23:22;;;;;;;17.23;7.75;;;;;;;10.08;92.08;99831.03;5008929;28;20054;-91
2022/11/17 06:25:47;;;;;;;14.18;7.07;;;;;;;10.29;90.84;99845.28;5008322;28;20101;-84
2022/11/17 06:28:14;;;;;;;14.98;8.40;;;;;;;10.30;90.71;99859.03;4997415;28;20027;-83
2022/11/17 06:30:39;;;;;;;14.88;10.45;;;;;;;10.33;91.31;99856.28;4966862;28;20062;-86
2022/11/17 06:33:06;;;;;;;18.20;10.15;;;;;;;10.26;91.17;99871.31;5002932;28;20191;-95
2022/11/17 06:35:33;;;;;;;13.70;9.63;;;;;;;10.23;91.73;99883.63;5008684;28;20113;-94
2022/11/17 06:37:59;;;;;;;13.02;9.23;;;;;;;10.11;91.04;99855.84;4992879;28;20054;-88
2022/11/17 06:40:25;;;;;;;13.38;8.15;;;;;;;10.66;92.64;99874.09;4990784;28;20034;-87
2022/11/17 06:43:02;;;;;;;12.45;8.43;;;;;;;10.68;88.12;99874.81;4977145;28;20491;-84
2022/11/17 06:45:42;;;;;;;16.15;9.75;;;;;;;10.68;88.07;99889.53;4991699;28;20037;-88
2022/11/17 06:48:07;;;;;;;8.85;5.13;;;;;;;10.66;87.32;99881.03;4998240;28;20034;-94
2022/11/17 06:50:33;;;;;;;17.30;7.22;;;;;;;10.60;88.07;99895.97;5025231;28;20034;-89
2022/11/17 06:53:03;;;;;;;8.48;5.63;;;;;;;10.53;88.10;99876.59;4975140;28;20030;-91
2022/11/17 06:55:28;;;;;;;8.75;4.82;;;;;;;10.72;88.93;99872.91;4985688;28;20033;-93
2022/11/17 06:58:02;;;;;;;58.08;29.60;;;;;;;10.79;88.30;99894.88;4973565;28;20050;-87
2022/11/17 07:00:28;;;;;;;23.33;11.30;;;;;;;10.97;89.81;99885.97;4991714;28;20459;-87
2022/11/17 07:02:59;;;;;;;17.58;10.52;;;;;;;10.93;89.01;99875.91;4990942;28;20022;-86
2022/11/17 07:05:25;;;;;;;7.10;5.97;;;;;;;11.07;86.69;99884.47;4999835;28;20042;-89
2022/11/17 07:07:50;;;;;;;11.20;7.78;;;;;;;10.74;87.47;99852.94;4974414;28;20476;-88
2022/11/17 07:10:16;;;;;;;14.77;8.25;;;;;;;10.97;87.70;99888.56;4986080;28;20031;-80
2022/11/17 07:12:41;;;;;;;14.52;8.20;;;;;;;10.94;87.59;99883.59;4990331;28;20035;-82
2022/11/17 07:15:07;;;;;;;11.07;6.55;;;;;;;10.94;87.68;99864.63;5008893;28;20034;-80
2022/11/17 07:17:33;;;;;;;13.65;7.15;;;;;;;11.19;87.70;99878.50;5011510;28;20022;-90
2022/11/17 07:19:58;;;;;;;11.60;6.43;;;;;;;11.14;86.68;99870.22;4983055;28;20026;-91
2022/11/17 07:22:24;;;;;;;11.05;6.35;;;;;;;11.12;86.49;99877.25;5010104;28;20050;-86
2022/11/17 07:24:50;;;;;;;10.75;6.32;;;;;;;11.09;86.45;99879.19;4995639;28;20037;-90
2022/11/17 07:27:15;;;;;;;10.77;6.10;;;;;;;11.15;86.81;99856.34;4974355;28;20038;-91
2022/11/17 07:29:41;;;;;;;9.48;5.38;;;;;;;11.17;86.30;99869.19;4974453;28;20030;-89
2022/11/17 07:32:06;;;;;;;11.55;7.75;;;;;;;11.19;85.19;99872.50;4993674;28;20040;-88
2022/11/17 07:34:32;;;;;;;11.25;7.38;;;;;;;11.12;84.82;99866.91;4988971;28;20476;-91
2022/11/17 07:36:58;;;;;;;16.95;8.18;;;;;;;11.11;86.25;99857.47;4991094;28;20562;-93
2022/11/17 07:39:23;;;;;;;12.98;8.32;;;;;;;11.07;87.18;99868.94;4996467;28;20038;-93
2022/11/17 07:41:49;;;;;;;18.50;8.15;;;;;;;11.11;87.01;99870.44;4979763;28;20411;-85
2022/11/17 07:44:14;;;;;;;10.40;7.57;;;;;;;11.07;87.21;99873.28;4992343;28;20030;-89
2022/11/17 07:46:39;;;;;;;13.40;8.75;;;;;;;11.14;87.49;99888.34;4991189;28;20072;-90
2022/11/17 07:49:05;;;;;;;14.40;9.13;;;;;;;11.20;87.29;99895.69;4974713;28;20041;-86
2022/11/17 07:51:30;;;;;;;13.15;7.40;;;;;;;11.27;86.73;99896.16;5009774;28;20034;-91
2022/11/17 07:53:56;;;;;;;16.48;8.18;;;;;;;11.28;87.65;99896.97;5026337;28;20080;-89
2022/11/17 07:56:21;;;;;;;13.82;8.13;;;;;;;11.37;87.54;99897.22;4970026;28;20058;-89
2022/11/17 07:58:47;;;;;;;13.73;7.38;;;;;;;11.29;87.81;99885.69;5024487;28;20034;-86
2022/11/17 08:01:16;;;;;;;14.73;7.05;;;;;;;11.35;88.38;99898.25;5030320;28;20376;-84
2022/11/17 08:03:42;;;;;;;11.48;6.65;;;;;;;11.38;88.48;99892.88;5000327;28;20482;-92
2022/11/17 08:06:10;;;;;;;11.93;6.53;;;;;;;11.43;87.64;99906.38;5013606;28;20387;-81
2022/11/17 08:08:36;;;;;;;13.45;7.18;;;;;;;11.52;88.05;99905.81;5008757;28;20034;-81
2022/11/17 08:11:06;;;;;;;29.25;13.18;;;;;;;11.50;88.02;99889.50;5009772;28;20025;-88
2022/11/17 08:13:32;;;;;;;35.60;19.90;;;;;;;11.56;87.94;99891.72;5017077;28;20033;-92
2022/11/17 08:16:00;;;;;;;24.20;14.38;;;;;;;11.67;87.16;99917.75;5011385;28;20084;-91
2022/11/17 08:18:26;;;;;;;12.00;6.75;;;;;;;11.69;85.99;99892.56;5008091;28;20494;-90
2022/11/17 08:20:58;;;;;;;7.25;5.10;;;;;;;11.79;84.27;99903.16;5010548;28;20029;-87
2022/11/17 08:23:25;;;;;;;9.32;5.78;;;;;;;11.91;84.62;99917.13;5024579;28;20427;-91
2022/11/17 08:25:50;;;;;;;12.48;8.70;;;;;;;12.03;85.00;99914.56;5010350;28;20033;-92
2022/11/17 08:28:15;;;;;;;13.32;7.22;;;;;;;12.15;85.73;99915.50;5027024;28;20428;-93
2022/11/17 08:30:43;;;;;;;9.32;5.93;;;;;;;12.28;84.23;99923.28;5009437;28;20038;-93
2022/11/17 08:33:11;;;;;;;12.85;5.72;;;;;;;12.29;85.04;99912.84;4993521;28;20510;-90
2022/11/17 08:35:37;;;;;;;9.27;4.90;;;;;;;12.34;84.82;99918.53;5028826;28;20037;-91
2022/11/17 08:38:02;;;;;;;9.30;5.93;;;;;;;12.38;84.27;99915.72;5012430;28;20061;-93
2022/11/17 08:40:28;;;;;;;16.08;9.38;;;;;;;12.43;84.35;99911.06;5026772;28;20112;-92
2022/11/17 08:42:53;;;;;;;12.98;7.35;;;;;;;12.50;84.58;99909.72;5009414;28;20030;-90
2022/11/17 08:45:19;;;;;;;12.20;5.68;;;;;;;12.73;84.73;99936.69;4987239;28;20025;-93
2022/11/17 08:47:45;;;;;;;9.55;5.53;;;;;;;12.77;84.68;99931.16;5001905;28;20086;-94
2022/11/17 08:50:10;;;;;;;8.75;4.80;;;;;;;12.83;84.78;99912.56;5012790;28;20034;-93
2022/11/17 08:52:36;;;;;;;8.63;5.80;;;;;;;13.09;84.98;99933.31;5010730;28;20057;-90
2022/11/17 08:55:01;;;;;;;12.55;4.07;;;;;;;13.28;84.34;99925.91;5015170;28;20477;-92
2022/11/17 08:57:30;;;;;;;6.15;4.15;;;;;;;13.39;84.28;99923.38;5008681;28;20050;-92
2022/11/17 08:59:56;;;;;;;5.00;3.05;;;;;;;13.61;85.27;99919.22;5007163;28;20479;-87
2022/11/17 09:02:25;;;;;;;3.90;1.95;;;;;;;13.85;84.79;99914.81;5021669;28;20036;-93
2022/11/17 09:04:50;;;;;;;3.58;2.38;;;;;;;14.15;82.10;99919.50;4999481;28;20026;-90
2022/11/17 09:07:16;;;;;;;2.03;1.80;;;;;;;14.28;78.44;99924.63;5027246;28;20037;-90
2022/11/17 09:09:42;;;;;;;2.95;1.83;;;;;;;14.39;76.71;99911.63;5006009;28;20035;-86
2022/11/17 09:12:08;;;;;;;1.42;1.00;;;;;;;14.61;76.23;99922.09;5035609;28;20021;-89
2022/11/17 09:14:33;;;;;;;31.73;16.60;;;;;;;14.73;78.31;99916.88;5001029;28;20085;-82
2022/11/17 09:16:59;;;;;;;3.83;2.55;;;;;;;14.88;76.84;99924.34;4994740;28;20092;-84
2022/11/17 09:19:24;;;;;;;7.05;2.67;;;;;;;15.10;77.39;99936.50;5012749;28;20502;-91
2022/11/17 09:21:50;;;;;;;2.08;1.88;;;;;;;15.08;77.24;99921.97;5008749;28;20050;-89
2022/11/17 09:24:15;;;;;;;2.83;1.83;;;;;;;15.05;70.55;99920.44;5009597;28;20030;-89
2022/11/17 09:26:41;;;;;;;6.47;2.20;;;;;;;15.17;72.37;99929.03;5038905;28;20033;-92
2022/11/17 09:29:07;;;;;;;5.55;2.80;;;;;;;15.36;71.19;99933.63;4990549;28;20471;-92
2022/11/17 09:31:33;;;;;;;6.65;2.90;;;;;;;15.39;71.55;99933.38;4992964;28;20050;-92
2022/11/17 09:33:58;;;;;;;3.40;2.00;;;;;;;15.39;67.75;99930.78;5007251;28;20033;-86
2022/11/17 09:36:27;;;;;;;2.20;1.35;;;;;;;15.46;67.74;99944.97;5004883;28;20037;-94
2022/11/17 09:38:52;;;;;;;3.58;1.83;;;;;;;15.50;66.84;99941.16;4977501;28;20557;-93
2022/11/17 09:41:22;;;;;;;2.58;1.92;;;;;;;15.46;67.20;99944.97;5028241;28;20030;-92
2022/11/17 09:44:02;;;;;;;2.60;1.38;;;;;;;15.33;68.14;99939.91;5001453;28;20026;-84
2022/11/17 09:46:34;;;;;;;3.58;2.45;;;;;;;15.37;66.77;99943.09;5017500;28;20175;-91
2022/11/17 09:49:31;;;;;;;2.28;2.00;;;;;;;15.11;67.54;99940.78;5032034;28;20029;-91
2022/11/17 09:51:59;;;;;;;3.97;2.38;;;;;;;15.25;67.50;99928.44;5006921;28;20045;-93
2022/11/17 09:54:47;;;;;;;3.28;2.38;;;;;;;15.19;67.25;99934.97;5005435;28;20033;-91
2022/11/17 09:57:40;;;;;;;2.83;1.58;;;;;;;14.96;66.55;99897.72;5007506;28;20077;-88
2022/11/17 10:00:15;;;;;;;1.73;1.40;;;;;;;15.24;65.39;99935.44;5011442;28;20033;-89
2022/11/17 10:02:41;;;;;;;3.80;2.38;;;;;;;15.34;64.09;99935.50;5013287;28;21121;-93
2022/11/17 10:05:25;;;;;;;2.30;1.48;;;;;;;15.38;65.04;99936.94;4992854;28;20554;-82
2022/11/17 10:07:51;;;;;;;4.18;3.10;;;;;;;15.41;63.46;99936.69;5012312;28;20026;-85
2022/11/17 10:10:35;;;;;;;3.35;1.52;;;;;;;15.28;64.52;99925.59;5015652;28;20388;-89
2022/11/17 10:13:01;;;;;;;1.90;1.30;;;;;;;15.06;65.04;99919.47;5023559;28;20064;-85
2022/11/17 10:15:41;;;;;;;1.98;1.55;;;;;;;14.95;65.00;99903.88;5014455;28;20074;-87
2022/11/17 10:18:13;;;;;;;4.45;2.97;;;;;;;15.15;65.60;99916.16;5030031;28;20030;-81
2022/11/17 10:20:40;;;;;;;3.92;2.42;;;;;;;15.36;64.34;99931.03;5041523;28;20132;-81
2022/11/17 10:23:06;;;;;;;4.55;2.80;;;;;;;15.46;61.91;99906.72;5030251;28;20080;-94
2022/11/17 10:25:42;;;;;;;5.82;1.95;;;;;;;15.67;60.76;99912.00;5044013;28;20415;-77
2022/11/17 10:28:21;;;;;;;7.55;2.40;;;;;;;15.92;59.65;99916.00;5010951;28;20036;-90
2022/11/17 10:30:55;;;;;;;6.10;2.70;;;;;;;15.98;60.58;99925.13;4998331;28;20026;-95
2022/11/17 10:33:39;;;;;;;5.18;2.10;;;;;;;16.00;60.93;99916.22;5011729;28;20061;-85
2022/11/17 10:36:07;;;;;;;3.45;2.25;;;;;;;15.96;60.92;99916.59;5010364;28;20069;-86
2022/11/17 10:38:32;;;;;;;3.10;2.30;;;;;;;15.74;59.82;99881.88;4995299;28;20027;-85
2022/11/17 10:40:59;;;;;;;3.05;1.98;;;;;;;16.06;59.05;99902.66;5010702;28;20455;-88
2022/11/17 10:43:32;;;;;;;2.92;1.63;;;;;;;16.03;58.60;99878.63;5047511;28;20628;-83
2022/11/17 10:46:00;;;;;;;3.13;2.50;;;;;;;16.16;58.72;99897.50;5030026;28;20036;-87
2022/11/17 10:48:34;;;;;;;4.30;2.70;;;;;;;16.24;58.62;99904.72;5014816;28;20077;-83
2022/11/17 10:51:03;;;;;;;13.88;6.32;;;;;;;16.14;59.79;99877.72;4995025;28;20045;-86
2022/11/17 10:53:31;;;;;;;116.10;50.28;;;;;;;16.32;59.46;99883.97;5027133;28;20480;-81
2022/11/17 10:56:00;;;;;;;4.40;3.08;;;;;;;16.53;56.99;99904.88;5011119;28;20022;-82
2022/11/17 10:58:27;;;;;;;29.60;14.38;;;;;;;16.57;57.22;99874.91;5018136;28;20046;-83
2022/11/17 11:00:54;;;;;;;8.82;5.38;;;;;;;16.43;56.01;99855.22;5010678;28;20080;-83
2022/11/17 11:03:25;;;;;;;7.13;3.95;;;;;;;16.81;55.54;99901.56;5010707;28;20117;-80
2022/11/17 11:06:20;;;;;;;12.07;4.78;;;;;;;16.71;56.47;99871.13;5026168;28;20499;-80
2022/11/17 11:08:45;;;;;;;3.92;2.75;;;;;;;16.95;54.31;99915.22;5012049;28;20160;-82
2022/11/17 11:11:24;;;;;;;2.28;1.40;;;;;;;16.92;55.05;99914.53;5011522;28;20101;-83
2022/11/17 11:13:56;;;;;;;4.95;2.83;;;;;;;16.96;55.36;99901.19;5025451;28;20125;-84
2022/11/17 11:16:24;;;;;;;5.22;2.78;;;;;;;16.90;51.91;99892.09;5026116;28;20034;-81
2022/11/17 11:18:50;;;;;;;2.78;1.85;;;;;;;16.88;52.79;99883.56;5010835;28;20029;-81
2022/11/17 11:21:51;;;;;;;8.23;3.28;;;;;;;17.11;50.39;99915.56;5026976;28;20549;-81
2022/11/17 11:24:26;;;;;;;4.28;2.70;;;;;;;16.96;50.99;99893.34;5011580;28;20124;-81
2022/11/17 11:27:26;;;;;;;8.75;3.67;;;;;;;17.05;50.76;99905.63;5026051;28;20040;-85
2022/11/17 11:29:56;;;;;;;3.00;2.00;;;;;;;16.91;51.00;99894.59;5009627;28;20108;-93
2022/11/17 11:32:24;;;;;;;3.45;2.17;;;;;;;16.98;51.36;99922.78;5010941;28;20124;-83
2022/11/17 11:35:41;;;;;;;6.97;2.00;;;;;;;16.85;50.06;99900.34;5011717;28;20096;-82
2022/11/17 11:38:34;;;;;;;3.60;2.50;;;;;;;16.89;51.87;99912.16;5002238;28;20053;-85
2022/11/17 11:41:13;;;;;;;5.38;2.92;;;;;;;16.85;51.46;99897.72;5010797;28;20057;-91
2022/11/17 11:43:58;;;;;;;2.72;1.38;;;;;;;16.89;51.89;99909.56;5028233;28;20038;-87
2022/11/17 11:46:54;;;;;;;3.47;1.98;;;;;;;16.98;52.11;99909.72;5024695;28;20091;-84
2022/11/17 11:49:37;;;;;;;7.68;3.55;;;;;;;16.95;55.69;99910.81;5027008;28;20045;-91
2022/11/17 11:52:04;;;;;;;7.03;3.15;;;;;;;16.79;59.21;99910.47;5011104;28;20475;-88
2022/11/17 11:54:37;;;;;;;5.93;3.25;;;;;;;16.57;57.57;99901.00;5009573;28;20028;-86
2022/11/17 11:57:03;;;;;;;4.82;3.65;;;;;;;16.54;58.09;99916.97;5000909;28;20041;-90
2022/11/17 11:59:40;;;;;;;6.40;3.70;;;;;;;16.41;58.39;99911.09;5010142;28;20034;-85
2022/11/17 12:02:12;;;;;;;4.88;2.90;;;;;;;16.22;57.74;99910.06;5026218;28;20022;-90
2022/11/17 12:04:59;;;;;;;6.18;4.13;;;;;;;16.11;57.96;99917.09;5009752;28;20140;-91
2022/11/17 12:07:46;;;;;;;5.30;4.15;;;;;;;15.96;59.07;99916.59;5026373;28;20022;-87
2022/11/17 12:10:14;;;;;;;6.05;3.65;;;;;;;15.88;59.72;99919.84;5023847;28;20480;-89
2022/11/17 12:12:40;;;;;;;7.85;3.85;;;;;;;15.84;59.27;99935.88;5008472;28;20029;-89
2022/11/17 12:15:18;;;;;;;12.13;6.60;;;;;;;15.68;58.96;99920.63;4990497;28;20026;-93
2022/11/17 12:17:56;;;;;;;6.63;3.15;;;;;;;15.68;60.82;99929.28;5024368;28;20041;-89
2022/11/17 12:20:30;;;;;;;5.10;3.25;;;;;;;15.66;58.70;99935.59;5008784;28;20140;-86
2022/11/17 12:23:05;;;;;;;6.20;3.22;;;;;;;15.51;59.92;99914.16;5010994;28;20049;-88
2022/11/17 12:25:31;;;;;;;7.80;4.03;;;;;;;15.47;59.28;99902.31;5009296;28;20022;-91
2022/11/17 12:27:57;;;;;;;4.97;3.28;;;;;;;15.58;59.65;99932.72;5009791;28;20037;-95
2022/11/17 12:30:37;;;;;;;8.15;4.90;;;;;;;15.55;58.62;99925.16;5025607;28;20053;-84
2022/11/17 12:33:04;;;;;;;10.10;4.78;;;;;;;15.64;59.55;99942.72;5009431;28;20450;-86
2022/11/17 12:35:36;;;;;;;6.03;2.97;;;;;;;15.53;59.01;99929.66;4992938;28;20073;-87
2022/11/17 12:38:15;;;;;;;3.67;2.75;;;;;;;15.55;59.78;99939.03;4993096;28;20034;-91
2022/11/17 12:40:50;;;;;;;8.93;4.63;;;;;;;15.29;59.50;99914.22;5010739;28;20030;-86
2022/11/17 12:43:16;;;;;;;4.82;2.83;;;;;;;15.28;59.23;99909.97;5005730;28;20470;-87
2022/11/17 12:46:20;;;;;;;8.68;4.32;;;;;;;15.16;59.38;99903.94;5009961;28;20057;-91
2022/11/17 12:48:55;;;;;;;5.72;2.95;;;;;;;15.33;59.98;99939.91;5012144;28;20121;-95
2022/11/17 12:51:20;;;;;;;5.53;3.80;;;;;;;15.30;58.85;99929.72;5023811;28;20088;-87
2022/11/17 12:53:51;;;;;;;4.95;3.30;;;;;;;15.18;59.42;99904.66;5008565;28;20030;-89
2022/11/17 12:56:16;;;;;;;7.28;3.83;;;;;;;15.33;58.88;99936.47;5027040;28;20037;-90
2022/11/17 12:59:11;;;;;;;7.95;4.75;;;;;;;15.11;58.82;99914.72;4999813;28;20131;-79
2022/11/17 13:01:45;;;;;;;7.03;4.05;;;;;;;15.29;59.33;99945.47;5001575;28;20061;-84
2022/11/17 13:04:16;;;;;;;7.57;3.85;;;;;;;15.21;58.41;99943.47;5008669;28;20030;-83
2022/11/17 13:06:58;;;;;;;7.88;3.92;;;;;;;15.10;58.67;99926.09;5024117;28;20045;-92
2022/11/17 13:09:25;;;;;;;11.17;3.87;;;;;;;15.17;57.46;99942.91;5007112;28;20026;-82
2022/11/17 13:12:03;;;;;;;6.43;4.30;;;;;;;15.12;57.03;99952.84;5025686;28;20081;-84
2022/11/17 13:14:29;;;;;;;6.53;3.38;;;;;;;15.17;56.58;99966.34;5008831;28;20022;-82
2022/11/17 13:16:55;;;;;;;6.88;3.40;;;;;;;15.09;57.22;99968.72;4992646;28;20038;-89
2022/11/17 13:19:34;;;;;;;3.10;1.95;;;;;;;15.07;56.46;99977.63;4996652;28;20096;-86
2022/11/17 13:22:12;;;;;;;6.13;3.33;;;;;;;15.04;56.59;99965.63;5028286;28;20034;-87
2022/11/17 13:24:39;;;;;;;5.47;3.30;;;;;;;14.78;57.67;99933.81;5028434;28;20541;-81
2022/11/17 13:27:06;;;;;;;3.85;2.00;;;;;;;14.83;56.97;99930.84;5013875;28;20065;-86
2022/11/17 13:29:31;;;;;;;6.50;3.50;;;;;;;14.99;57.38;99979.97;5012103;28;20874;-82
2022/11/17 13:32:22;;;;;;;4.93;2.72;;;;;;;15.05;57.21;99980.34;5009958;28;20120;-81
2022/11/17 13:34:55;;;;;;;11.35;2.25;;;;;;;15.11;57.03;99982.44;4996231;28;20029;-82
2022/11/17 13:37:23;;;;;;;8.43;3.67;;;;;;;14.91;56.19;99954.53;5012407;28;20443;-86
2022/11/17 13:40:21;;;;;;;7.50;3.15;;;;;;;15.07;56.38;99981.03;5009056;28;20026;-83
2022/11/17 13:42:46;;;;;;;7.35;3.38;;;;;;;15.07;57.63;99986.25;5009175;28;20030;-82
2022/11/17 13:45:13;;;;;;;4.05;2.63;;;;;;;15.13;57.02;99990.13;5029146;28;20052;-81
2022/11/17 13:47:46;;;;;;;5.72;3.38;;;;;;;15.19;57.08;99992.28;5029133;28;20025;-88
2022/11/17 13:50:30;;;;;;;5.20;2.75;;;;;;;15.11;58.56;99997.25;5028281;28;20029;-87
2022/11/17 13:52:57;;;;;;;4.55;2.92;;;;;;;15.01;57.01;99997.13;5013337;28;20601;-84
2022/11/17 13:55:23;;;;;;;7.75;3.35;;;;;;;14.96;57.85;99986.25;5027788;28;20077;-83
2022/11/17 13:58:06;;;;;;;5.88;2.88;;;;;;;14.97;57.18;99980.09;5019743;28;20026;-84
2022/11/17 14:00:31;;;;;;;5.10;2.70;;;;;;;14.86;58.08;99987.91;4995706;28;20025;-84
2022/11/17 14:03:04;;;;;;;3.78;2.25;;;;;;;14.98;57.70;100009.56;5029094;28;20103;-84
2022/11/17 14:05:30;;;;;;;;;;;;;;;14.96;58.57;100014.91;5012785;28;20026;-83
2022/11/17 14:07:56;;;;;;;6.47;2.30;;;;;;;14.68;58.47;99997.13;5011022;28;19917;-85
2022/11/17 14:10:21;;;;;;;4.45;2.22;;;;;;;14.79;58.44;100028.38;5028027;28;20030;-86
2022/11/17 14:12:48;;;;;;;6.47;2.92;;;;;;;14.70;58.32;100023.88;5013238;28;20025;-82
